Mansfield, Missouri
Current Conditions -  °F | °C
As of 1:53 AM on Thursday 27 Nov 2014 (Local Time) from KUNO Reporting Station
Overcast Overcast  
Wind Chill: 21°   Ceiling: 1500
Heat Index: 32°   Visibility: 10mi
Dew Point: 25°   Wind: 16mph
Humidity: 75%   Direction: 320°NW
Pressure: 30.31"   Gusts: 26mph
Location:  37.11°N, 92.58°W
Report Text: KUNO 270753Z AUTO 32014G23KT 10SM OVC015 00/M04 A3031 RMK AO2 PK WND 32026/0715 SLP270 T00001039
Loading
Personal Weather Stations






























Interactive Weather Map New forecast layout! Learn more

10-Day Weather Forecast

Advertisements
Track Severe Weather on mobile